createdAt,value
2022-12-04T00:01:31.192Z,2.70
2022-12-04T00:05:35.653Z,2.70
2022-12-04T00:09:38.980Z,2.80
2022-12-04T00:13:42.282Z,2.80
2022-12-04T00:17:48.593Z,2.80
2022-12-04T00:21:53.904Z,2.80
2022-12-04T00:26:01.552Z,2.80
2022-12-04T00:30:05.402Z,2.70
2022-12-04T00:34:08.571Z,2.70
2022-12-04T00:38:13.038Z,2.70
2022-12-04T00:42:16.084Z,2.70
2022-12-04T00:46:19.593Z,2.70
2022-12-04T00:50:23.129Z,2.70
2022-12-04T00:54:27.625Z,2.70
2022-12-04T00:58:30.661Z,2.70
2022-12-04T01:02:33.907Z,2.80
2022-12-04T01:06:37.028Z,2.80
2022-12-04T01:10:42.983Z,2.80
2022-12-04T01:14:46.289Z,2.80
2022-12-04T01:18:50.144Z,2.80
2022-12-04T01:22:53.214Z,2.80
2022-12-04T01:26:57.673Z,2.80
2022-12-04T01:31:02.302Z,2.80
2022-12-04T01:35:06.318Z,2.80
2022-12-04T01:39:09.414Z,2.80
2022-12-04T01:43:14.551Z,2.80
2022-12-04T01:47:17.744Z,2.80
2022-12-04T01:51:24.171Z,2.80
2022-12-04T01:55:27.385Z,2.80
2022-12-04T01:59:36.539Z,2.80
2022-12-04T02:03:40.624Z,2.80
2022-12-04T02:07:45.582Z,2.80
2022-12-04T02:11:53.801Z,2.80
2022-12-04T02:16:07.633Z,2.90
2022-12-04T02:20:29.929Z,2.90
2022-12-04T02:24:50.017Z,2.90
2022-12-04T02:28:58.877Z,2.90
2022-12-04T02:33:07.138Z,2.90
2022-12-04T02:37:14.093Z,2.90
2022-12-04T02:41:26.638Z,2.90
2022-12-04T02:45:34.915Z,2.90
2022-12-04T02:49:43.717Z,2.80
2022-12-04T02:53:50.881Z,2.80
2022-12-04T02:57:59.039Z,2.80
2022-12-04T03:02:08.984Z,2.80
2022-12-04T03:06:15.365Z,2.90
2022-12-04T03:10:27.758Z,2.90
2022-12-04T03:14:33.532Z,2.90
2022-12-04T03:18:43.389Z,2.90
2022-12-04T03:22:51.694Z,2.90
2022-12-04T03:27:01.355Z,2.80
2022-12-04T03:31:08.336Z,2.90
2022-12-04T03:35:20.235Z,2.90
2022-12-04T03:39:27.815Z,2.90
2022-12-04T03:43:37.136Z,2.90
2022-12-04T03:47:44.416Z,2.90
2022-12-04T03:51:56.218Z,2.90
2022-12-04T03:56:04.776Z,2.90
2022-12-04T04:00:12.081Z,2.90
2022-12-04T04:04:17.429Z,2.90
2022-12-04T04:08:34.025Z,2.90
2022-12-04T04:12:41.736Z,2.90
2022-12-04T04:17:06.681Z,2.90
2022-12-04T04:21:27.121Z,2.90
2022-12-04T04:25:32.694Z,2.90
2022-12-04T04:29:36.007Z,2.90
2022-12-04T04:33:48.666Z,2.90
2022-12-04T04:37:58.917Z,3.00
2022-12-04T04:42:12.687Z,3.00
2022-12-04T04:46:21.051Z,3.00
2022-12-04T04:50:24.879Z,3.00
2022-12-04T04:54:30.959Z,3.00
2022-12-04T04:58:35.523Z,3.00
2022-12-04T05:02:38.741Z,3.00
2022-12-04T05:06:41.948Z,3.00
2022-12-04T05:10:45.005Z,3.00
2022-12-04T05:14:49.778Z,3.00
2022-12-04T05:19:10.268Z,3.00
2022-12-04T05:23:13.458Z,3.00
2022-12-04T05:27:16.756Z,3.00
2022-12-04T05:31:21.221Z,3.00
2022-12-04T05:35:24.333Z,3.10
2022-12-04T05:39:27.454Z,3.10
2022-12-04T05:43:31.002Z,3.10
2022-12-04T05:47:39.565Z,3.10
2022-12-04T05:51:42.675Z,3.10
2022-12-04T05:55:45.712Z,3.10
2022-12-04T05:59:48.857Z,3.10
2022-12-04T06:03:53.867Z,3.20
2022-12-04T06:07:56.970Z,3.20
2022-12-04T06:12:00.479Z,3.20
2022-12-04T06:16:03.585Z,3.20
2022-12-04T06:20:11.714Z,3.20
2022-12-04T06:24:17.262Z,3.20
2022-12-04T06:28:20.343Z,3.20
2022-12-04T06:32:23.421Z,3.20
2022-12-04T06:36:28.034Z,3.30
2022-12-04T06:40:31.453Z,3.30
2022-12-04T06:44:34.738Z,3.30
2022-12-04T06:48:38.472Z,3.30
2022-12-04T06:52:42.945Z,3.30
2022-12-04T06:56:46.357Z,3.30
2022-12-04T07:00:51.147Z,3.30
2022-12-04T07:04:57.537Z,3.30
2022-12-04T07:09:05.017Z,3.30
2022-12-04T07:13:08.981Z,3.30
2022-12-04T07:17:12.535Z,3.40
2022-12-04T07:21:19.299Z,3.40
2022-12-04T07:25:24.113Z,3.40
2022-12-04T07:29:27.356Z,3.40
2022-12-04T07:33:30.969Z,3.40
2022-12-04T07:38:25.502Z,3.50
2022-12-04T07:43:04.096Z,3.50
2022-12-04T07:48:01.277Z,3.60
2022-12-04T07:52:19.462Z,3.60
2022-12-04T07:56:56.598Z,3.70
2022-12-04T08:01:34.836Z,3.70
2022-12-04T08:06:08.989Z,3.70
2022-12-04T08:10:46.112Z,3.80
2022-12-04T08:15:22.761Z,3.90
2022-12-04T08:20:09.421Z,4.00
2022-12-04T08:24:38.698Z,4.00
2022-12-04T08:28:42.558Z,4.10
2022-12-04T08:32:45.795Z,4.10
2022-12-04T08:37:23.889Z,4.20
2022-12-04T08:41:57.746Z,4.20
2022-12-04T08:46:34.740Z,4.30
2022-12-04T08:51:08.952Z,4.40
2022-12-04T08:55:47.465Z,4.40
2022-12-04T08:59:50.444Z,4.50
2022-12-04T09:03:53.847Z,4.50
2022-12-04T09:07:57.114Z,4.50
2022-12-04T09:12:35.641Z,4.50
2022-12-04T09:17:12.506Z,4.50
2022-12-04T09:21:49.650Z,4.60
2022-12-04T09:26:27.441Z,4.70
2022-12-04T09:31:06.905Z,4.80
2022-12-04T09:35:40.742Z,5.00
2022-12-04T09:40:23.800Z,5.10
2022-12-04T09:44:54.346Z,5.20
2022-12-04T09:49:03.337Z,5.20
2022-12-04T09:53:34.744Z,5.30
2022-12-04T09:58:13.797Z,5.40
2022-12-04T10:02:52.664Z,5.60
2022-12-04T10:07:30.231Z,5.40
2022-12-04T10:12:11.595Z,5.40
2022-12-04T10:16:44.764Z,5.30
2022-12-04T10:21:30.494Z,5.40
2022-12-04T10:25:38.072Z,5.40
2022-12-04T10:29:44.028Z,5.50
2022-12-04T10:34:20.301Z,5.40
2022-12-04T10:38:32.250Z,5.40
2022-12-04T10:42:42.521Z,5.40
2022-12-04T10:47:13.595Z,5.40
2022-12-04T10:51:47.812Z,5.50
2022-12-04T10:55:50.869Z,5.60
2022-12-04T10:59:57.168Z,5.70
2022-12-04T11:04:03.926Z,5.80
2022-12-04T11:08:08.758Z,5.90
2022-12-04T11:12:19.969Z,5.90
2022-12-04T11:16:35.470Z,6.00
2022-12-04T11:21:01.587Z,6.20
2022-12-04T11:25:04.748Z,6.40
2022-12-04T11:29:13.575Z,6.40
2022-12-04T11:33:23.156Z,6.40
2022-12-04T11:37:28.337Z,6.30
2022-12-04T11:41:33.592Z,6.40
2022-12-04T11:45:36.648Z,6.50
2022-12-04T11:49:43.950Z,6.50
2022-12-04T11:54:24.076Z,6.50
2022-12-04T11:58:46.550Z,6.50
2022-12-04T12:03:27.685Z,6.70
2022-12-04T12:07:44.568Z,6.80
2022-12-04T12:12:10.333Z,6.90
2022-12-04T12:16:21.237Z,7.20
2022-12-04T12:20:55.021Z,7.40
2022-12-04T12:25:07.147Z,7.40
2022-12-04T12:29:40.434Z,7.50
2022-12-04T12:33:48.940Z,7.50
2022-12-04T12:37:54.758Z,7.40
2022-12-04T12:42:02.297Z,7.50
2022-12-04T12:46:36.205Z,7.50
2022-12-04T12:51:29.632Z,7.50
2022-12-04T12:55:38.095Z,7.60
2022-12-04T13:00:15.727Z,7.50
2022-12-04T13:04:46.683Z,7.30
2022-12-04T13:09:25.577Z,7.30
2022-12-04T13:13:39.150Z,7.30
2022-12-04T13:17:45.484Z,7.20
2022-12-04T13:22:24.505Z,7.20
2022-12-04T13:26:49.040Z,7.30
2022-12-04T13:30:58.601Z,7.20
2022-12-04T13:35:38.794Z,7.20
2022-12-04T13:40:06.021Z,7.10
2022-12-04T13:44:19.524Z,7.10
2022-12-04T13:48:44.145Z,7.00
2022-12-04T13:53:37.460Z,7.10
2022-12-04T13:58:01.529Z,7.10
2022-12-04T14:02:37.900Z,7.10
2022-12-04T14:07:35.831Z,7.10
2022-12-04T14:12:14.892Z,7.00
2022-12-04T14:16:48.726Z,7.00
2022-12-04T14:21:28.288Z,7.00
2022-12-04T14:26:03.297Z,6.90
2022-12-04T14:30:37.261Z,6.90
2022-12-04T14:35:15.184Z,6.90
2022-12-04T14:39:54.104Z,6.90
2022-12-04T14:44:24.573Z,6.80
2022-12-04T14:49:08.017Z,6.80
2022-12-04T14:53:24.132Z,6.80
2022-12-04T14:57:53.893Z,6.70
2022-12-04T15:01:57.398Z,6.70
2022-12-04T15:06:05.116Z,6.70
2022-12-04T15:10:38.087Z,6.80
2022-12-04T15:14:44.031Z,6.80
2022-12-04T15:19:18.112Z,6.70
2022-12-04T15:23:26.298Z,6.70
2022-12-04T15:27:32.705Z,6.80
2022-12-04T15:31:43.463Z,6.70
2022-12-04T15:36:15.733Z,6.70
2022-12-04T15:40:23.314Z,6.60
2022-12-04T15:44:29.402Z,6.60
2022-12-04T15:49:09.084Z,6.50
2022-12-04T15:53:18.047Z,6.50
2022-12-04T15:57:52.453Z,6.50
2022-12-04T16:01:55.814Z,6.50
2022-12-04T16:06:16.177Z,6.40
2022-12-04T16:10:23.541Z,6.50
2022-12-04T16:14:27.212Z,6.50
2022-12-04T16:18:30.395Z,6.50
2022-12-04T16:22:34.822Z,6.50
2022-12-04T16:27:12.656Z,6.50
2022-12-04T16:31:16.289Z,6.50
2022-12-04T16:35:19.445Z,6.50
2022-12-04T16:39:57.801Z,6.40
2022-12-04T16:44:37.017Z,6.40
2022-12-04T16:48:40.059Z,6.40
2022-12-04T16:53:17.946Z,6.30
2022-12-04T16:57:53.875Z,6.30
2022-12-04T17:02:27.927Z,6.30
2022-12-04T17:07:25.963Z,6.30
2022-12-04T17:12:02.767Z,6.30
2022-12-04T17:16:43.735Z,6.30
2022-12-04T17:20:47.003Z,6.30
2022-12-04T17:25:25.991Z,6.40
2022-12-04T17:29:29.159Z,6.30
2022-12-04T17:33:33.926Z,6.30
2022-12-04T17:37:38.602Z,6.40
2022-12-04T17:42:17.623Z,6.30
2022-12-04T17:46:24.657Z,6.30
2022-12-04T17:50:29.224Z,6.30
2022-12-04T17:54:32.762Z,6.30
2022-12-04T17:59:09.724Z,6.30
2022-12-04T18:03:12.949Z,6.30
2022-12-04T18:07:49.143Z,6.20
2022-12-04T18:11:52.289Z,6.20
2022-12-04T18:16:29.696Z,6.20
2022-12-04T18:21:07.761Z,6.20
2022-12-04T18:25:55.096Z,6.20
2022-12-04T18:30:19.587Z,6.20
2022-12-04T18:34:56.737Z,6.30
2022-12-04T18:39:33.342Z,6.30
2022-12-04T18:44:12.000Z,6.30
2022-12-04T18:48:46.699Z,6.30
2022-12-04T18:53:24.990Z,6.30
2022-12-04T18:57:58.803Z,6.30
2022-12-04T19:02:03.671Z,6.30
2022-12-04T19:06:07.672Z,6.30
2022-12-04T19:10:12.079Z,6.30
2022-12-04T19:14:46.218Z,6.30
2022-12-04T19:18:50.809Z,6.30
2022-12-04T19:22:53.849Z,6.30
2022-12-04T19:27:30.909Z,6.30
2022-12-04T19:31:36.723Z,6.30
2022-12-04T19:36:13.404Z,6.20
2022-12-04T19:40:17.279Z,6.10
2022-12-04T19:48:58.777Z,6.10
2022-12-04T19:53:03.231Z,6.10
2022-12-04T19:57:17.719Z,6.20
2022-12-04T20:01:51.440Z,6.10
2022-12-04T20:06:29.567Z,6.10
2022-12-04T20:11:05.450Z,6.10
2022-12-04T20:15:09.685Z,6.10
2022-12-04T20:19:46.587Z,6.10
2022-12-04T20:24:23.301Z,6.10
2022-12-04T20:29:01.969Z,6.20
2022-12-04T20:33:35.621Z,6.20
2022-12-04T20:38:13.539Z,6.20
2022-12-04T20:42:16.789Z,6.20
2022-12-04T20:46:25.572Z,6.20
2022-12-04T20:50:56.391Z,6.20
2022-12-04T20:55:33.451Z,6.20
2022-12-04T21:00:10.901Z,6.20
2022-12-04T21:04:18.080Z,6.20
2022-12-04T21:08:57.017Z,6.20
2022-12-04T21:13:55.364Z,6.20
2022-12-04T21:18:01.701Z,6.20
2022-12-04T21:22:06.667Z,6.30
2022-12-04T21:26:09.813Z,6.30
2022-12-04T21:30:13.880Z,6.30
2022-12-04T21:34:47.750Z,6.30
2022-12-04T21:38:52.809Z,6.40
2022-12-04T21:43:30.472Z,6.40
2022-12-04T21:48:07.521Z,6.40
2022-12-04T21:52:44.809Z,6.40
2022-12-04T21:56:49.352Z,6.40
2022-12-04T22:01:22.998Z,6.30
2022-12-04T22:06:01.267Z,6.30
2022-12-04T22:10:10.480Z,6.30
2022-12-04T22:14:40.235Z,6.30
2022-12-04T22:18:43.267Z,6.30
2022-12-04T22:22:46.482Z,6.30
2022-12-04T22:26:49.741Z,6.30
2022-12-04T22:30:54.199Z,6.30
2022-12-04T22:34:57.323Z,6.30
2022-12-04T22:39:34.727Z,6.40
2022-12-04T22:43:40.935Z,6.40
2022-12-04T22:47:45.866Z,6.50
2022-12-04T22:51:48.954Z,6.50
2022-12-04T22:55:51.946Z,6.60
2022-12-04T22:59:55.475Z,6.60
2022-12-04T23:04:34.631Z,6.70
2022-12-04T23:08:37.820Z,6.70
2022-12-04T23:13:14.433Z,6.80
2022-12-04T23:17:18.076Z,6.80
2022-12-04T23:21:57.037Z,6.90
2022-12-04T23:26:03.458Z,6.90
2022-12-04T23:30:08.120Z,6.90
2022-12-04T23:34:11.368Z,6.90
2022-12-04T23:38:49.845Z,7.00
2022-12-04T23:42:54.248Z,7.00
2022-12-04T23:46:59.296Z,7.00
2022-12-04T23:51:02.560Z,7.10
2022-12-04T23:55:09.076Z,7.10
2022-12-04T23:59:39.805Z,7.10
